Tiempo atmosférico en la estación meteorológica de Bailo, Huesca (722 m.)

Fecha
DESCASC
Temp. máxima en grados centígrados (hora)
DESCASC
Temp. mínima en grados centígrados (hora)
DESCASC
Temp. media en grados centígrados
DESCASC
Racha de viento máxima en m/sg (hora)
DESCASC
Velocidad máxima media en intervalos de 10 minutos(hora)
DESCASC
Precipitaciones diarias en mm
DESCASC
Precipitaciones de 00:00 a 06:00 en mm
DESCASC
Precipitaciones de 06:00 a 12:00 en mm
DESCASC
Precipitaciones de 12:00 a 18:00 en mm
DESCASC
Precipitaciones de 18:00 a 24:00 en mm
DESCASC
21-08-2017 33.5 (17:10) 12.7 (07:20) 23.1 9.44 (21:50) 6.94 (21:10) 0 0 0 0 0
20-08-2017 30.6 (17:20) 10.7 (07:50) 20.7 8.33 (18:10) 5.83 (18:10) 0 0 0 0 0
19-08-2017 29.4 (15:50) 14.5 (08:00) 21.9 8.61 (16:10) 5.83 (16:10) 0 0 0 0 0
18-08-2017 31.2 (15:50) 19 (07:50) 25.1 11.94 (18:30) 8.61 (18:20) 0 0 0 0 0
17-08-2017 33.9 (16:40) 13.4 (00:00) 23.7 9.17 (17:40) 5.83 (18:10) 0 0 0 0 0
16-08-2017 31 (16:30) 15.8 (00:00) 23.4 10.56 (17:00) 6.67 (17:00) 0 0 0 0 0
15-08-2017 32.2 (17:20) 19.1 (00:00) 25.7 13.06 (19:20) 8.33 (19:20) 0.2 0 0.2 0 0
14-08-2017 32.1 (16:50) 19 (06:00) 25.5 19.72 (23:10) 11.67 (23:20) 0 0 0 0 0
13-08-2017 30.3 (15:40) 12.7 (00:00) 21.5 8.89 (23:00) 6.11 (23:10) 0 0 0 0 0
12-08-2017 29 (17:50) 8.6 (00:00) 18.8 8.61 (19:30) 6.39 (19:30) 0 0 0 0 0
11-08-2017 22.5 (16:20) 11.1 (00:00) 16.8 13.89 (01:30) 10 (01:30) 0 0 0 0 0
10-08-2017 19.4 (15:40) 11.6 (00:00) 15.5 14.44 (08:50) 9.72 (08:40) 0 0 0 0 0
09-08-2017 18.9 (16:50) 8.1 (00:00) 13.5 15.28 (19:50) 11.11 (19:50) 0 0 0 0 0
08-08-2017 22 (16:20) 12.1 (00:00) 17.1 15.56 (15:50) 11.11 (15:50) 0 0 0 0 0
07-08-2017 30.1 (17:40) 17.8 (00:00) 23.9 11.39 (14:40) 8.06 (07:40) 0 0 0 0 0
06-08-2017 28.6 (18:20) 14.3 (00:00) 21.5 6.39 (19:00) 4.17 (18:20) 3.4 3.2 0 0.2 0
05-08-2017 33.2 (16:00) 17.4 (00:00) 25.3 9.44 (18:30) 6.94 (18:40) 6.6 0 0 0 6.6
04-08-2017 34.8 (16:40) 17.8 (00:00) 26.3 12.22 (14:20) 6.67 (18:40) 0 0 0 0 0
03-08-2017 35.7 (17:20) 23.1 (00:00) 29.4 8.89 (17:00) 6.67 (02:40) 0 0 0 0 0
02-08-2017 32.5 (17:20) 17.3 (00:00) 24.9 13.33 (18:10) 8.61 (16:50) 0 0 0 0 0
01-08-2017 31.7 (16:30) 16.6 (00:00) 24.2 10.28 (16:30) 5.83 (16:30) 0 0 0 0 0
31-07-2017 33.5 (17:50) 16.2 (00:00) 24.9 13.61 (13:00) 10 (12:50) 0 0 0 0 0
30-07-2017 34.1 (16:00) 20.3 (00:00) 27.2 10.83 (15:20) 6.39 (19:50) 0 0 0 0 0
29-07-2017 34.3 (18:20) 17.2 (00:00) 25.8 10.28 (13:40) 7.5 (13:40) 0 0 0 0 0
28-07-2017 33.6 (16:40) 15.1 (00:00) 24.3 10.28 (16:50) 6.67 (16:00) 0 0 0 0 0
27-07-2017 32.5 (18:20) 13.2 (00:00) 22.8 9.72 (17:00) 6.39 (15:10) 0 0 0 0 0
26-07-2017 28.1 (16:00) 11.9 (00:00) 20 13.33 (16:00) 8.89 (16:20) 0 0 0 0 0
25-07-2017 23.2 (15:30) 13.5 (00:00) 18.4 14.44 (16:40) 10.28 (17:00) 0 0 0 0 0
24-07-2017 22.8 (15:40) 15.9 (00:00) 19.3 16.39 (19:00) 10.83 (18:50) 0 0 0 0 0
23-07-2017 28.8 (17:00) 14.2 (00:00) 21.5 11.67 (23:00) 7.78 (23:00) 0 0 0 0 0

Gráficas

Temp. máximas Temp. mínimas Temp. medias Precipitaciones Rachas de viento máximas Velocidades máximas media en intervalos de 10 minutos

Datos horarios

Fecha y hora oficial Temperatura (ºC) Velocidad del viento (km/h) Dirección del viento Racha (km/h) Dirección de racha Precipitación (mm) Presión (hPa) Tendencia (hPa) Humedad (%)
2017-08-21 23:00:00 24.7 12 Sudeste 28 Sudoeste 0 -- -- 35
2017-08-21 22:00:00 27.6 22 Sur 34 Sur 0 -- -- 29
2017-08-21 21:00:00 28.3 23 Sur 32 Sur 0 -- -- 28
2017-08-21 20:00:00 30.8 19 Sur 28 Sur 0 -- -- 24
2017-08-21 19:00:00 32 20 Sur 30 Sur 0 -- -- 23
2017-08-21 18:00:00 32.9 18 Sur 28 Sur 0 -- -- 24
2017-08-21 17:00:00 33.4 13 Sur 25 Sur 0 -- -- 24
2017-08-21 16:00:00 33 17 Sur 27 Sur 0 -- -- 26
2017-08-21 15:00:00 32.6 13 Sur 22 Sur 0 -- -- 26
2017-08-21 14:00:00 31.4 11 Sudeste 22 Sudeste 0 -- -- 27
2017-08-21 13:00:00 30.1 13 Sur 22 Sur 0 -- -- 28
2017-08-21 12:00:00 27.8 13 Sur 24 Sudeste 0 -- -- 30
2017-08-21 11:00:00 24.7 12 Sur 19 Sur 0 -- -- 37
2017-08-21 10:00:00 19.7 3 Noroeste 6 Este 0 -- -- 53
2017-08-21 09:00:00 16.3 3 Norte 5 Nordeste 0 -- -- 64
2017-08-21 08:00:00 14.1 0 Calma 4 Noroeste 0 -- -- 72
2017-08-21 07:00:00 13.2 5 Noroeste 6 Sudoeste 0 -- -- 74
2017-08-21 06:00:00 13.5 0 Calma 4 Sudeste 0 -- -- 72
2017-08-21 05:00:00 14.1 0 Calma 5 Sudoeste 0 -- -- 69
2017-08-21 04:00:00 14.7 2 Noroeste 4 Nordeste 0 -- -- 67
2017-08-21 03:00:00 15.4 0 Calma 4 Noroeste 0 -- -- 64
2017-08-21 02:00:00 16.2 0 Calma 5 Oeste 0 -- -- 62
2017-08-21 01:00:00 16.9 4 Sudoeste 7 Sudoeste 0 -- -- 59
2017-08-21 00:00:00 18.3 3 Noroeste 10 Sudoeste 0 -- -- 55
2017-08-20 23:00:00 19 8 Sudoeste 10 Sudoeste 0 -- -- 52
2017-08-20 22:00:00 21.1 4 Oeste 12 Nordeste 0 -- -- 43
2017-08-20 21:00:00 23.9 7 Noroeste 20 Noroeste 0 -- -- 37
2017-08-20 20:00:00 27.1 14 Norte 30 Norte 0 -- -- 31
2017-08-20 19:00:00 29.4 15 Noroeste 30 Noroeste 0 -- -- 26
2017-08-20 18:00:00 30.4 17 Noroeste 27 Noroeste 0 -- -- 24
2017-08-20 17:00:00 30.1 9 Oeste 21 Noroeste 0 -- -- 21
2017-08-20 16:00:00 29.8 7 Noroeste 19 Noroeste 0 -- -- 20
2017-08-20 15:00:00 28.2 9 Norte 20 Noroeste 0 -- -- 19
2017-08-20 14:00:00 26.1 6 Norte 20 Noroeste 0 -- -- 24
2017-08-20 13:00:00 23.5 7 Noroeste 15 Noroeste 0 -- -- 29
2017-08-20 12:00:00 21.7 5 Nordeste 13 Noroeste 0 -- -- 33
2017-08-20 11:00:00 18.7 4 Noroeste 11 Nordeste 0 -- -- 41
2017-08-20 10:00:00 17.2 8 Este 12 Sudeste 0 -- -- 49
2017-08-20 09:00:00 15 3 Este 6 Sudeste 0 -- -- 62
2017-08-20 08:00:00 11.1 0 Calma 5 Noroeste 0 -- -- 79
2017-08-20 07:00:00 10.9 0 Calma 6 Sur 0 -- -- 80
2017-08-20 06:00:00 11 2 Este 6 Sudoeste 0 -- -- 78
2017-08-20 05:00:00 12.4 4 Sudoeste 9 Sudoeste 0 -- -- 73
2017-08-20 04:00:00 12.8 6 Sur 8 Sur 0 -- -- 72
2017-08-20 03:00:00 12.9 0 Calma 6 Sudoeste 0 -- -- 70
2017-08-20 02:00:00 13.8 6 Sudoeste 8 Sudoeste 0 -- -- 67
2017-08-20 01:00:00 14.9 0 Calma 5 Sudoeste 0 -- -- 62
2017-08-20 00:00:00 15.9 2 Sur 8 Sudeste 0 -- -- 58
2017-08-19 23:00:00 16.4 4 Sur 6 Sur 0 -- -- 58
2017-08-19 22:00:00 18.5 0 Calma 13 Norte 0 -- -- 51
2017-08-19 21:00:00 21.1 7 Norte 23 Norte 0 -- -- 45
2017-08-19 20:00:00 25.2 14 Norte 26 Noroeste 0 -- -- 34
2017-08-19 19:00:00 27.3 17 Norte 30 Noroeste 0 -- -- 32
2017-08-19 18:00:00 28.8 14 Norte 30 Noroeste 0 -- -- 27
2017-08-19 17:00:00 28.9 17 Noroeste 31 Noroeste 0 -- -- 26
2017-08-19 16:00:00 29 19 Noroeste 29 Noroeste 0 -- -- 26
2017-08-19 15:00:00 28.3 9 Norte 24 Norte 0 -- -- 28
2017-08-19 14:00:00 26.2 9 Noroeste 17 Norte 0 -- -- 35
2017-08-19 13:00:00 24.6 7 Sur 17 Noroeste 0 -- -- 38
2017-08-19 12:00:00 22.6 7 Noroeste 15 Norte 0 -- -- 45
2017-08-19 11:00:00 21 6 Norte 16 Noroeste 0 -- -- 53
2017-08-19 10:00:00 18.7 6 Norte 12 Norte 0 -- -- 61
2017-08-19 09:00:00 16.2 2 Sudoeste 5 Noroeste 0 -- -- 75
2017-08-19 08:00:00 14.5 4 Noroeste 5 Sudoeste 0 -- -- 79
2017-08-19 07:00:00 15 4 Sur 7 Sur 0 -- -- 77
2017-08-19 06:00:00 15.4 3 Noroeste 7 Noroeste 0 -- -- 74
2017-08-19 05:00:00 16 7 Noroeste 11 Noroeste 0 -- -- 73
2017-08-19 04:00:00 16 2 Noroeste 5 Noroeste 0 -- -- 74
2017-08-19 03:00:00 16.3 2 Sudoeste 9 Sur 0 -- -- 74
2017-08-19 02:00:00 17.3 3 Sur 8 Norte 0 -- -- 71
2017-08-19 01:00:00 18.5 4 Este 17 Noroeste 0 -- -- 68
2017-08-19 00:00:00 19.2 12 Noroeste 18 Noroeste 0 -- -- 66
2017-08-18 23:00:00 19.4 5 Noroeste 19 Noroeste 0 -- -- 66
2017-08-18 22:00:00 20.6 15 Noroeste 20 Noroeste 0 -- -- 62
2017-08-18 21:00:00 21.6 15 Noroeste 28 Noroeste 0 -- -- 59
2017-08-18 20:00:00 23 18 Noroeste 40 Noroeste 0 -- -- 54
2017-08-18 19:00:00 24.1 28 Noroeste 43 Noroeste 0 -- -- 54
2017-08-18 18:00:00 27.4 27 Norte 39 Noroeste 0 -- -- 47
2017-08-18 17:00:00 30 20 Noroeste 32 Oeste 0 -- -- 41
2017-08-18 16:00:00 31.2 17 Noroeste 34 Noroeste 0 -- -- 36
2017-08-18 15:00:00 31 21 Noroeste 33 Noroeste 0 -- -- 41
2017-08-18 14:00:00 30 17 Norte 36 Norte 0 -- -- 43
2017-08-18 13:00:00 30.3 17 Norte 34 Norte 0 -- -- 40
2017-08-18 12:00:00 28.6 6 Norte 13 Nordeste 0 -- -- 41
2017-08-18 11:00:00 26 6 Norte 13 Este 0 -- -- 47
2017-08-18 10:00:00 23.7 4 Nordeste 9 Sudeste 0 -- -- 50
2017-08-18 09:00:00 21.5 3 Este 8 Este 0 -- -- 55
2017-08-18 08:00:00 19.3 3 Norte 16 Noroeste 0 -- -- 62
2017-08-18 07:00:00 22.5 13 Sur 22 Sur 0 -- -- 54
2017-08-18 06:00:00 22.9 11 Sur 21 Sur 0 -- -- 53
2017-08-18 05:00:00 22.6 16 Sur 26 Sur 0 -- -- 51
2017-08-18 04:00:00 23.9 17 Sur 23 Sur 0 -- -- 46
2017-08-18 03:00:00 24.4 5 Sur 14 Sudeste 0 -- -- 44
2017-08-18 02:00:00 25.2 6 Este 21 Sur 0 -- -- 43
2017-08-18 01:00:00 26.2 15 Sur 26 Sudoeste 0 -- -- 42
2017-08-18 00:00:00 24.9 12 Sudoeste 15 Sudoeste 0 -- -- 43
2017-08-17 23:00:00 25.2 6 Sudoeste 10 Sudoeste 0 -- -- 46
2017-08-17 22:00:00 26.5 5 Oeste 17 Oeste 0 -- -- 42
2017-08-17 21:00:00 28.3 7 Oeste 10 Noroeste 0 -- -- 32
2017-08-17 20:00:00 32.7 9 Noroeste 22 Norte 0 -- -- 25
2017-08-17 19:00:00 33.2 14 Noroeste 32 Noroeste 0 -- -- 26
2017-08-17 18:00:00 33.5 19 Noroeste 33 Noroeste 0 -- -- 27
2017-08-17 17:00:00 33.4 12 Norte 26 Noroeste 0 -- -- 27
2017-08-17 16:00:00 33.2 10 Norte 23 Norte 0 -- -- 28
2017-08-17 15:00:00 32.7 8 Este 23 Nordeste 0 -- -- 27
2017-08-17 14:00:00 31.4 9 Este 18 Nordeste 0 -- -- 29
2017-08-17 13:00:00 29.4 7 Norte 15 Nordeste 0 -- -- 35
2017-08-17 12:00:00 26.6 5 Norte 10 Norte 0 -- -- 38
2017-08-17 11:00:00 23.6 5 Norte 12 Este 0 -- -- 50
2017-08-17 10:00:00 19.7 4 Norte 7 Noroeste 0 -- -- 63
2017-08-17 09:00:00 16.9 2 Norte 5 Nordeste 0 -- -- 70
2017-08-17 08:00:00 15 0 Calma 5 Norte 0 -- -- 80
2017-08-17 07:00:00 13.7 4 Noroeste 7 Sudoeste 0 -- -- 83
2017-08-17 06:00:00 14.2 5 Sudoeste 6 Sudoeste 0 -- -- 82
2017-08-17 05:00:00 15.1 3 Sur 6 Noroeste 0 -- -- 77
2017-08-17 04:00:00 15.4 3 Noroeste 6 Noroeste 0 -- -- 80
2017-08-17 03:00:00 16.6 4 Sudoeste 4 Sudoeste 0 -- -- 75
2017-08-17 02:00:00 17.2 4 Oeste 8 Sudoeste 0 -- -- 73
2017-08-17 01:00:00 18.7 3 Sur 6 Sur 0 -- -- 68
2017-08-17 00:00:00 19.4 6 Sudoeste 9 Sur 0 -- -- 67
2017-08-16 23:00:00 20.3 5 Sudeste 12 Este 0 -- -- 64
2017-08-16 22:00:00 21.7 6 Norte 21 Norte 0 -- -- 57
2017-08-16 21:00:00 24.6 13 Oeste 25 Noroeste 0 -- -- 47
2017-08-16 20:00:00 29 18 Noroeste 25 Noroeste 0 -- -- 31
2017-08-16 19:00:00 30.2 16 Noroeste 29 Noroeste 0 -- -- 21
2017-08-16 18:00:00 30.8 17 Noroeste 35 Noroeste 0 -- -- 29
2017-08-16 17:00:00 31 24 Noroeste 38 Noroeste 0 -- -- 32
2017-08-16 16:00:00 29.7 9 Nordeste 24 Noroeste 0 -- -- 38
2017-08-16 15:00:00 29.6 11 Norte 21 Noroeste 0 -- -- 41
2017-08-16 14:00:00 29.7 7 Noroeste 18 Sur 0 -- -- 40
2017-08-16 13:00:00 28.4 5 Este 19 Sudeste 0 -- -- 43
2017-08-16 12:00:00 25.8 9 Noroeste 15 Noroeste 0 -- -- 53
2017-08-16 11:00:00 23.1 4 Norte 10 Este 0 -- -- 62
2017-08-16 10:00:00 20.1 4 Nordeste 8 Este 0 -- -- 72
2017-08-16 09:00:00 17.6 2 Noroeste 4 Noroeste 0 -- -- 83
2017-08-16 08:00:00 16.3 2 Sur 5 Sudeste 0 -- -- 86
2017-08-16 07:00:00 16.5 3 Oeste 8 Noroeste 0 -- -- 86
2017-08-16 06:00:00 17 3 Sudoeste 5 Sudoeste 0 -- -- 82
2017-08-16 05:00:00 17.7 3 Sudeste 6 Sudoeste 0 -- -- 80
2017-08-16 04:00:00 18 3 Sur 5 Este 0 -- -- 79
2017-08-16 03:00:00 18.4 5 Este 6 Este 0 -- -- 76
2017-08-16 02:00:00 19.1 3 Sudeste 5 Sur 0 -- -- 74
2017-08-16 01:00:00 19.9 4 Sur 8 Sur 0 -- -- 71
2017-08-16 00:00:00 20.9 3 Este 7 Sudeste 0 -- -- 68
2017-08-15 23:00:00 21.5 2 Sur 8 Norte 0 -- -- 65
2017-08-15 22:00:00 22.3 6 Noroeste 19 Oeste 0 -- -- 62
2017-08-15 21:00:00 25.1 11 Oeste 28 Sur 0 -- -- 54
2017-08-15 20:00:00 27.2 19 Sur 47 Sur 0 -- -- 39
2017-08-15 19:00:00 30.3 25 Sudoeste 38 Sudoeste 0 -- -- 31
2017-08-15 18:00:00 31.2 16 Sur 28 Sur 0 -- -- 28
2017-08-15 17:00:00 31.7 9 Sur 25 Sur 0 -- -- 28
2017-08-15 16:00:00 30.6 18 Sur 28 Sudoeste 0 -- -- 28
2017-08-15 15:00:00 29.3 16 Sur 31 Sur 0 -- -- 29
2017-08-15 14:00:00 28.9 17 Sur 31 Sur 0 -- -- 30
2017-08-15 13:00:00 29.1 16 Sur 28 Sudeste 0 -- -- 30
2017-08-15 12:00:00 27.9 17 Sudeste 27 Sudeste 0.2 -- -- 34
2017-08-15 11:00:00 25.1 16 Sur 28 Sur 0 -- -- 35
2017-08-15 10:00:00 22.8 19 Sur 30 Sudeste 0 -- -- 41
2017-08-15 09:00:00 20.8 15 Sur 28 Sur 0 -- -- 48
2017-08-15 08:00:00 20.1 18 Sur 27 Sur 0 -- -- 49
2017-08-15 07:00:00 19.8 17 Sur 25 Sur 0 -- -- 54
2017-08-15 06:00:00 19.5 12 Sur 22 Sur 0 -- -- 58
2017-08-15 05:00:00 19.9 15 Sur 20 Sur 0 -- -- 61
2017-08-15 04:00:00 20.8 16 Sur 20 Sur 0 -- -- 58
2017-08-15 03:00:00 20.8 11 Sur 15 Sur 0 -- -- 57
2017-08-15 02:00:00 19.7 4 Norte 10 Noroeste 0 -- -- 64
2017-08-15 01:00:00 21 7 Sur 11 Sur 0 -- -- 59
2017-08-15 00:00:00 20.9 8 Sur 71 Noroeste 0 -- -- 66
2017-08-14 23:00:00 25.6 13 Sudoeste 29 Sur 0 -- -- 43
2017-08-14 22:00:00 25.1 15 Sur 34 Sudoeste 0 -- -- 47
2017-08-14 21:00:00 28.2 21 Sur 30 Sur 0 -- -- 34
2017-08-14 20:00:00 29.4 21 Sur 34 Sur 0 -- -- 31
2017-08-14 19:00:00 30.9 22 Sur 39 Sur 0 -- -- 28
2017-08-14 18:00:00 31.7 20 Sur 39 Sur 0 -- -- 27
2017-08-14 17:00:00 32 23 Sudoeste 41 Sur 0 -- -- 26
2017-08-14 16:00:00 31.4 24 Sur 40 Sur 0 -- -- 26
2017-08-14 15:00:00 31.1 21 Sur 37 Sudoeste 0 -- -- 27
2017-08-14 14:00:00 30 26 Sur 36 Sur 0 -- -- 30
2017-08-14 13:00:00 29.1 19 Sur 33 Sur 0 -- -- 32
2017-08-14 12:00:00 28.7 15 Sur 32 Sudeste 0 -- -- 34
2017-08-14 11:00:00 25.7 16 Sur 25 Sur 0 -- -- 41
2017-08-14 10:00:00 23.5 16 Sur 25 Sur 0 -- -- 47
2017-08-14 09:00:00 21.7 13 Sur 25 Sur 0 -- -- 54
2017-08-14 08:00:00 19.6 17 Sur 26 Sur 0 -- -- 60
2017-08-14 07:00:00 19.2 15 Sur 26 Sur 0 -- -- 62
2017-08-14 06:00:00 19 12 Sur 22 Sur 0 -- -- 62
2017-08-14 05:00:00 19.4 17 Sur 26 Sudeste 0 -- -- 59
2017-08-14 04:00:00 20.6 15 Sur 22 Sur 0 -- -- 53
2017-08-14 03:00:00 20.9 8 Sur 14 Sur 0 -- -- 48
2017-08-14 02:00:00 21.7 9 Sur 14 Sur 0 -- -- 47
2017-08-14 01:00:00 21.8 6 Sudeste 18 Este 0 -- -- 50
2017-08-14 00:00:00 22.8 6 Este 32 Sur 0 -- -- 43
2017-08-13 23:00:00 24.9 22 Sudoeste 32 Sur 0 -- -- 39
2017-08-13 22:00:00 24.8 14 Sudoeste 21 Sudoeste 0 -- -- 39
2017-08-13 21:00:00 25.9 9 Sudoeste 12 Sudoeste 0 -- -- 34
2017-08-13 20:00:00 29.2 6 Este 14 Este 0 -- -- 28
2017-08-13 19:00:00 29.3 8 Sudeste 18 Este 0 -- -- 28
2017-08-13 18:00:00 29.3 10 Norte 18 Noroeste 0 -- -- 29
2017-08-13 17:00:00 29.5 7 Norte 20 Nordeste 0 -- -- 30
2017-08-13 16:00:00 29.9 9 Noroeste 20 Noroeste 0 -- -- 29
2017-08-13 15:00:00 29.7 11 Este 26 Este 0 -- -- 29
2017-08-13 14:00:00 28.5 11 Sur 22 Sudeste 0 -- -- 31
2017-08-13 13:00:00 27.4 13 Sudeste 22 Sudoeste 0 -- -- 32
2017-08-13 12:00:00 25.4 14 Sur 21 Sur 0 -- -- 35
2017-08-13 11:00:00 21.4 5 Nordeste 10 Este 0 -- -- 51
2017-08-13 10:00:00 17.7 3 Norte 6 Noroeste 0 -- -- 64
2017-08-13 09:00:00 15 0 Calma 4 Norte 0 -- -- 72
2017-08-13 08:00:00 14.4 0 Calma 3 Este 0 -- -- 75
2017-08-13 07:00:00 13 0 Calma 4 Sudeste 0 -- -- 76
2017-08-13 06:00:00 13.3 2 Noroeste 4 Sudoeste 0 -- -- 75
2017-08-13 05:00:00 13.8 0 Calma 4 Noroeste 0 -- -- 73
2017-08-13 04:00:00 14.9 0 Calma 5 Oeste 0 -- -- 68
2017-08-13 03:00:00 14.8 5 Noroeste 8 Sudoeste 0 -- -- 69
2017-08-13 02:00:00 17 7 Sudoeste 9 Sudoeste 0 -- -- 62
2017-08-13 01:00:00 17.9 3 Sur 8 Sudoeste 0 -- -- 58
2017-08-13 00:00:00 18.7 5 Sur 8 Sur 0 -- -- 56
2017-08-12 23:00:00 19.6 5 Sur 8 Sur 0 -- -- 53
2017-08-12 22:00:00 21.3 4 Oeste 11 Norte 0 -- -- 48
2017-08-12 21:00:00 24.2 9 Noroeste 26 Noroeste 0 -- -- 41
2017-08-12 20:00:00 26 18 Norte 31 Noroeste 0 -- -- 39
2017-08-12 19:00:00 27.5 17 Noroeste 29 Noroeste 0 -- -- 35
2017-08-12 18:00:00 28.7 18 Noroeste 28 Noroeste 0 -- -- 28
2017-08-12 17:00:00 28.7 13 Noroeste 26 Norte 0 -- -- 29
2017-08-12 16:00:00 27.7 13 Noroeste 29 Noroeste 0 -- -- 31
2017-08-12 15:00:00 26.4 11 Noroeste 23 Noroeste 0 -- -- 33
2017-08-12 14:00:00 25.2 8 Norte 18 Norte 0 -- -- 33
2017-08-12 13:00:00 23.1 7 Norte 18 Nordeste 0 -- -- 37
2017-08-12 12:00:00 20.7 5 Este 11 Nordeste 0 -- -- 44
2017-08-12 11:00:00 17.5 2 Noroeste 9 Nordeste 0 -- -- 54
2017-08-12 10:00:00 14.4 4 Noroeste 10 Este 0 -- -- 66
2017-08-12 09:00:00 12 3 Norte 7 Nordeste 0 -- -- 73
2017-08-12 08:00:00 9.6 2 Noroeste 4 Nordeste 0 -- -- 81
2017-08-12 07:00:00 8.7 0 Calma 4 Norte 0 -- -- 85
2017-08-12 06:00:00 9.2 2 Noroeste 5 Noroeste 0 -- -- 82
2017-08-12 05:00:00 9.7 4 Noroeste 6 Noroeste 0 -- -- 80
2017-08-12 04:00:00 10.4 2 Norte 9 Sudoeste 0 -- -- 77
2017-08-12 03:00:00 11.4 4 Sur 9 Sudoeste 0 -- -- 73
2017-08-12 02:00:00 12 5 Sur 11 Sudoeste 0 -- -- 71
2017-08-12 01:00:00 12.3 6 Sudeste 8 Sudeste 0 -- -- 71
2017-08-12 00:00:00 12.6 5 Sur 11 Noroeste 0 -- -- 69
2017-08-11 23:00:00 13.5 9 Noroeste 23 Noroeste 0 -- -- 65
2017-08-11 22:00:00 14.4 17 Noroeste 34 Noroeste 0 -- -- 61
2017-08-11 21:00:00 16.8 20 Noroeste 41 Noroeste 0 -- -- 53
2017-08-11 20:00:00 18.6 26 Noroeste 40 Noroeste 0 -- -- 48
2017-08-11 19:00:00 20.1 26 Noroeste 48 Noroeste 0 -- -- 43
2017-08-11 18:00:00 21.3 30 Noroeste 44 Noroeste 0 -- -- 40
2017-08-11 17:00:00 21.8 29 Noroeste 45 Noroeste 0 -- -- 39
2017-08-11 16:00:00 22 27 Noroeste 42 Noroeste 0 -- -- 39
2017-08-11 15:00:00 21.6 30 Noroeste 46 Noroeste 0 -- -- 37
2017-08-11 14:00:00 21.5 28 Noroeste 41 Noroeste 0 -- -- 38
2017-08-11 13:00:00 19.8 22 Noroeste 40 Noroeste 0 -- -- 42
2017-08-11 12:00:00 18.6 23 Noroeste 36 Noroeste 0 -- -- 46
2017-08-11 11:00:00 17.4 22 Noroeste 35 Noroeste 0 -- -- 49
2017-08-11 10:00:00 15.2 23 Noroeste 33 Noroeste 0 -- -- 53
2017-08-11 09:00:00 13.6 17 Noroeste 38 Noroeste 0 -- -- 57
2017-08-11 08:00:00 12.2 24 Noroeste 45 Noroeste 0 -- -- 61
2017-08-11 07:00:00 11.6 28 Noroeste 46 Noroeste 0 -- -- 60
2017-08-11 06:00:00 11.4 21 Noroeste 36 Oeste 0 -- -- 62
2017-08-11 05:00:00 11.4 22 Noroeste 38 Noroeste 0 -- -- 62
2017-08-11 04:00:00 11.8 26 Noroeste 40 Noroeste 0 -- -- 67
2017-08-11 03:00:00 11.8 25 Noroeste 46 Noroeste 0 -- -- 72
2017-08-11 02:00:00 12.5 33 Noroeste 50 Noroeste 0 -- -- 66
2017-08-11 01:00:00 12.5 35 Noroeste 45 Noroeste 0 -- -- 70
2017-08-11 00:00:00 12.3 30 Noroeste 41 Noroeste 0 -- -- 67
2017-08-10 23:00:00 12.5 26 Noroeste 41 Noroeste 0 -- -- 64
2017-08-10 22:00:00 13.4 27 Noroeste 44 Norte 0 -- -- 61
2017-08-10 21:00:00 14.3 29 Noroeste 41 Noroeste 0 -- -- 62
2017-08-10 20:00:00 15.2 27 Noroeste 50 Noroeste 0 -- -- 61
2017-08-10 19:00:00 16.2 28 Norte 46 Noroeste 0 -- -- 60
2017-08-10 18:00:00 17.7 29 Noroeste 47 Noroeste 0 -- -- 57
2017-08-10 17:00:00 18.7 27 Noroeste 44 Noroeste 0 -- -- 54
2017-08-10 16:00:00 18.7 26 Noroeste 49 Noroeste 0 -- -- 52
2017-08-10 15:00:00 18.3 32 Noroeste 49 Noroeste 0 -- -- 57
2017-08-10 14:00:00 18.2 31 Noroeste 50 Noroeste 0 -- -- 56
2017-08-10 13:00:00 17.5 29 Noroeste 48 Noroeste 0 -- -- 58
2017-08-10 12:00:00 16.5 33 Noroeste 51 Noroeste 0 -- -- 60
2017-08-10 11:00:00 15.5 28 Noroeste 42 Noroeste 0 -- -- 63
2017-08-10 10:00:00 14.4 24 Noroeste 40 Noroeste 0 -- -- 64
2017-08-10 09:00:00 13.9 28 Noroeste 52 Noroeste 0 -- -- 61
2017-08-10 08:00:00 12.9 24 Noroeste 39 Noroeste 0 -- -- 67
2017-08-10 07:00:00 12.2 27 Noroeste 43 Noroeste 0 -- -- 72
2017-08-10 06:00:00 11.8 26 Noroeste 40 Noroeste 0 -- -- 73
2017-08-10 05:00:00 12 29 Noroeste 42 Noroeste 0 -- -- 70
2017-08-10 04:00:00 11.9 30 Noroeste 42 Noroeste 0 -- -- 71
2017-08-10 03:00:00 11.7 26 Noroeste 42 Noroeste 0 -- -- 70
2017-08-10 02:00:00 12.1 27 Noroeste 40 Noroeste 0 -- -- 66
2017-08-10 01:00:00 11.8 22 Noroeste 41 Noroeste 0 -- -- 64
2017-08-10 00:00:00 12 28 Noroeste 50 Noroeste 0 -- -- 63
2017-08-09 23:00:00 12.3 31 Noroeste 48 Noroeste 0 -- -- 60
2017-08-09 22:00:00 12.6 32 Noroeste 49 Noroeste 0 -- -- 62
2017-08-09 21:00:00 13.6 29 Noroeste 52 Noroeste 0 -- -- 57
2017-08-09 20:00:00 15.9 30 Noroeste 55 Noroeste 0 -- -- 46
2017-08-09 19:00:00 17.2 32 Noroeste 52 Norte 0 -- -- 45
2017-08-09 18:00:00 17.7 35 Noroeste 54 Noroeste 0 -- -- 44
2017-08-09 17:00:00 18.3 37 Noroeste 54 Noroeste 0 -- -- 47
2017-08-09 16:00:00 16.6 29 Noroeste 42 Norte 0 -- -- 55
2017-08-09 15:00:00 16.8 31 Noroeste 43 Norte 0 -- -- 52
2017-08-09 14:00:00 17.6 28 Noroeste 41 Noroeste 0 -- -- 52
2017-08-09 13:00:00 17.8 27 Noroeste 39 Norte 0 -- -- 52
2017-08-09 12:00:00 18 12 Norte 27 Noroeste 0 -- -- 51
2017-08-09 11:00:00 15.5 7 Norte 11 Noroeste 0 -- -- 60
2017-08-09 10:00:00 13.5 3 Este 7 Este 0 -- -- 68
2017-08-09 09:00:00 10.6 0 Calma 8 Sudeste 0 -- -- 82
2017-08-09 08:00:00 8.6 3 Norte 9 Sudoeste 0 -- -- 86
2017-08-09 07:00:00 8.7 3 Sudeste 7 Sudeste 0 -- -- 84
2017-08-09 06:00:00 8.6 6 Noroeste 8 Noroeste 0 -- -- 83
2017-08-09 05:00:00 9.6 0 Calma 8 Sudoeste 0 -- -- 79
2017-08-09 04:00:00 9.2 5 Oeste 10 Sudoeste 0 -- -- 81
2017-08-09 03:00:00 10.8 5 Sudoeste 9 Sur 0 -- -- 75
2017-08-09 02:00:00 10.9 5 Oeste 11 Oeste 0 -- -- 74
2017-08-09 01:00:00 11.3 8 Sudoeste 10 Sudoeste 0 -- -- 74
2017-08-09 00:00:00 12.2 4 Este 14 Norte 0 -- -- 71
2017-08-08 23:00:00 12.9 3 Noroeste 23 Norte 0 -- -- 68
2017-08-08 22:00:00 13.6 11 Noroeste 26 Noroeste 0 -- -- 68
2017-08-08 21:00:00 16.2 21 Noroeste 38 Noroeste 0 -- -- 60
2017-08-08 20:00:00 18.1 24 Noroeste 46 Noroeste 0 -- -- 54
2017-08-08 19:00:00 19.2 33 Noroeste 52 Noroeste 0 -- -- 52
2017-08-08 18:00:00 20.6 33 Noroeste 53 Noroeste 0 -- -- 47
2017-08-08 17:00:00 21.4 32 Noroeste 53 Noroeste 0 -- -- 45
2017-08-08 16:00:00 21.6 39 Noroeste 56 Noroeste 0 -- -- 43
2017-08-08 15:00:00 21.5 35 Noroeste 54 Noroeste 0 -- -- 47
2017-08-08 14:00:00 21.3 32 Noroeste 49 Noroeste 0 -- -- 48
2017-08-08 13:00:00 20.7 32 Noroeste 46 Noroeste 0 -- -- 47
2017-08-08 12:00:00 20.4 27 Noroeste 41 Noroeste 0 -- -- 46
2017-08-08 11:00:00 18 29 Noroeste 42 Noroeste 0 -- -- 54
2017-08-08 10:00:00 16.8 26 Noroeste 42 Noroeste 0 -- -- 65
2017-08-08 09:00:00 16.2 19 Noroeste 36 Noroeste 0 -- -- 67
2017-08-08 08:00:00 15.7 21 Noroeste 35 Noroeste 0 -- -- 71
2017-08-08 07:00:00 15.9 24 Noroeste 35 Noroeste 0 -- -- 70
2017-08-08 06:00:00 16.5 20 Noroeste 34 Noroeste 0 -- -- 68
2017-08-08 05:00:00 16.7 22 Noroeste 37 Noroeste 0 -- -- 69
2017-08-08 04:00:00 17 18 Noroeste 30 Noroeste 0 -- -- 71
2017-08-08 03:00:00 17.2 14 Noroeste 29 Norte 0 -- -- 73
2017-08-08 02:00:00 18.1 18 Norte 25 Noroeste 0 -- -- 80
2017-08-08 01:00:00 19.2 4 Nordeste 18 Noroeste 0 -- -- 82
2017-08-08 00:00:00 20.2 8 Norte 23 Noroeste 0 -- -- 76
2017-08-07 23:00:00 23.3 14 Noroeste 39 Sudoeste 0 -- -- 68
2017-08-07 22:00:00 25.8 25 Sur 36 Sur 0 -- -- 62
2017-08-07 21:00:00 27.1 17 Sur 33 Sur 0 -- -- 52
2017-08-07 20:00:00 28.8 20 Sur 37 Sur 0 -- -- 46
2017-08-07 19:00:00 29 26 Sur 39 Sur 0 -- -- 44
2017-08-07 18:00:00 29.5 16 Sudeste 32 Sudeste 0 -- -- 43
2017-08-07 17:00:00 29.9 17 Sur 31 Sur 0 -- -- 39
2017-08-07 16:00:00 29.2 19 Sur 38 Sur 0 -- -- 45
2017-08-07 15:00:00 27.8 27 Sur 41 Sur 0 -- -- 52
2017-08-07 14:00:00 27.5 25 Sur 40 Sur 0 -- -- 54
2017-08-07 13:00:00 26.7 19 Sur 34 Sur 0 -- -- 57
2017-08-07 12:00:00 25.8 18 Sur 35 Sudoeste 0 -- -- 62
2017-08-07 11:00:00 24.8 20 Sur 32 Sur 0 -- -- 64
2017-08-07 10:00:00 23.7 17 Sur 34 Sudoeste 0 -- -- 69
2017-08-07 09:00:00 21.8 24 Sur 40 Sur 0 -- -- 77
2017-08-07 08:00:00 20.4 28 Sur 40 Sur 0 -- -- 82
2017-08-07 07:00:00 20 23 Sur 30 Sur 0 -- -- 80
2017-08-07 06:00:00 20.4 15 Sur 23 Sur 0 -- -- 75
2017-08-07 05:00:00 17.9 4 Sudeste 8 Sudeste 0 -- -- 81
2017-08-07 04:00:00 18 3 Sudeste 5 Sudoeste 0 -- -- 78
2017-08-07 03:00:00 17.8 6 Oeste 9 Noroeste 0 -- -- 80
2017-08-07 02:00:00 18.6 3 Este 6 Sur 0 -- -- 79
2017-08-07 01:00:00 19.3 5 Sur 8 Sudoeste 0 -- -- 72
2017-08-07 00:00:00 19.8 4 Sur 6 Sudeste 0 -- -- 70
2017-08-06 23:00:00 21 4 Este 11 Noroeste 0 -- -- 66
2017-08-06 22:00:00 23 7 Norte 20 Sur 0 -- -- 60
2017-08-06 21:00:00 26.1 14 Sur 21 Sur 0 -- -- 50
2017-08-06 20:00:00 28.1 10 Sudoeste 20 Sudeste 0 -- -- 48
2017-08-06 19:00:00 28.4 13 Este 23 Este 0 -- -- 49
2017-08-06 18:00:00 28.2 9 Nordeste 21 Este 0 -- -- 49
2017-08-06 17:00:00 27 8 Este 20 Este 0 -- -- 55
2017-08-06 16:00:00 27.1 6 Sur 15 Sudeste 0 -- -- 56
2017-08-06 15:00:00 25 4 Norte 13 Noroeste 0 -- -- 56
2017-08-06 14:00:00 22.8 4 Sudeste 12 Noroeste 0.2 -- -- 58
2017-08-06 13:00:00 21.1 4 Oeste 12 Oeste 0 -- -- 63
2017-08-06 12:00:00 18.2 4 Norte 9 Noroeste 0 -- -- 69
2017-08-06 11:00:00 16.4 2 Noroeste 7 Este 0 -- -- 72
2017-08-06 10:00:00 15.5 4 Este 8 Este 0 -- -- 77
2017-08-06 09:00:00 14.8 3 Este 6 Norte 0 -- -- 82
2017-08-06 08:00:00 14.4 6 Nordeste 9 Norte 0 -- -- 86
2017-08-06 07:00:00 14.4 4 Nordeste 9 Norte 0 -- -- 88
2017-08-06 06:00:00 15 4 Nordeste 18 Este 0.6 -- -- 89
2017-08-06 05:00:00 15.7 4 Nordeste 10 Este 0.2 -- -- 91
2017-08-06 04:00:00 16 5 Norte 13 Este 0.2 -- -- 90
2017-08-06 03:00:00 16.5 3 Sudoeste 8 Norte 1.2 -- -- 87
2017-08-06 02:00:00 16.8 7 Noroeste 14 Noroeste 0.2 -- -- 83
2017-08-06 01:00:00 16.8 5 Oeste 16 Este 0.8 -- -- 88
2017-08-06 00:00:00 17.4 4 Norte 20 Oeste 6.6 -- -- 83
2017-08-05 23:00:00 20.1 9 Noroeste 22 Norte 0 -- -- 62
2017-08-05 22:00:00 21.6 7 Noroeste 19 Norte 0 -- -- 60
2017-08-05 21:00:00 22.9 13 Norte 33 Norte 0 -- -- 56
2017-08-05 20:00:00 25.5 22 Norte 33 Noroeste 0 -- -- 50
2017-08-05 19:00:00 28.5 17 Norte 34 Noroeste 0 -- -- 46
2017-08-05 18:00:00 30.8 24 Noroeste 34 Noroeste 0 -- -- 43
2017-08-05 17:00:00 32.6 17 Norte 31 Norte 0 -- -- 42
2017-08-05 16:00:00 33.2 15 Noroeste 30 Noroeste 0 -- -- 40
2017-08-05 15:00:00 32.4 17 Norte 28 Norte 0 -- -- 42
2017-08-05 14:00:00 31.6 13 Noroeste 27 Noroeste 0 -- -- 42
2017-08-05 13:00:00 29.2 8 Oeste 17 Noroeste 0 -- -- 46
2017-08-05 12:00:00 27.8 6 Noroeste 15 Norte 0 -- -- 50
2017-08-05 11:00:00 26.2 5 Nordeste 14 Nordeste 0 -- -- 53
2017-08-05 10:00:00 23.8 3 Norte 10 Este 0 -- -- 58
2017-08-05 09:00:00 20.6 0 Calma 6 Noroeste 0 -- -- 70
2017-08-05 08:00:00 18.2 2 Oeste 6 Noroeste 0 -- -- 81
2017-08-05 07:00:00 18.6 3 Nordeste 4 Norte 0 -- -- 78
2017-08-05 06:00:00 19.1 4 Noroeste 5 Noroeste 0 -- -- 76
2017-08-05 05:00:00 19.5 0 Calma 5 Oeste 0 -- -- 74
2017-08-05 04:00:00 20.3 2 Sur 6 Oeste 0 -- -- 71
2017-08-05 03:00:00 21.1 0 Calma 10 Oeste 0 -- -- 68
2017-08-05 02:00:00 21.5 7 Oeste 12 Oeste 0 -- -- 66
2017-08-05 01:00:00 21.8 2 Sudoeste 6 Sudoeste 0 -- -- 65
2017-08-05 00:00:00 22.7 5 Sudoeste 9 Sudoeste 0 -- -- 62
2017-08-04 23:00:00 24.2 3 Sur 10 Sudeste 0 -- -- 58
2017-08-04 22:00:00 25.4 7 Oeste 21 Noroeste 0 -- -- 56
2017-08-04 21:00:00 28.6 16 Noroeste 31 Noroeste 0 -- -- 47
2017-08-04 20:00:00 31.3 23 Noroeste 32 Norte 0 -- -- 37
2017-08-04 19:00:00 33.4 19 Noroeste 33 Noroeste 0 -- -- 35
2017-08-04 18:00:00 34.4 17 Noroeste 31 Noroeste 0 -- -- 32
2017-08-04 17:00:00 34.3 9 Norte 30 Noroeste 0 -- -- 29
2017-08-04 16:00:00 33.9 15 Noroeste 30 Noroeste 0 -- -- 31
2017-08-04 15:00:00 33.3 17 Noroeste 44 Noroeste 0 -- -- 31
2017-08-04 14:00:00 32.5 14 Norte 27 Norte 0 -- -- 35
2017-08-04 13:00:00 31.1 5 Norte 17 Norte 0 -- -- 39
2017-08-04 12:00:00 29.2 8 Norte 17 Norte 0 -- -- 42
2017-08-04 11:00:00 26.5 6 Noroeste 10 Noroeste 0 -- -- 45
2017-08-04 10:00:00 23.7 4 Noroeste 9 Nordeste 0 -- -- 54
2017-08-04 09:00:00 20.8 4 Noroeste 6 Noroeste 0 -- -- 64
2017-08-04 08:00:00 18.6 0 Calma 4 Oeste 0 -- -- 70
2017-08-04 07:00:00 17.9 0 Calma 4 Oeste 0 -- -- 71
2017-08-04 06:00:00 18.8 0 Calma 6 Sudoeste 0 -- -- 67
2017-08-04 05:00:00 19 3 Sudoeste 4 Sudoeste 0 -- -- 71
2017-08-04 04:00:00 19.9 3 Este 4 Nordeste 0 -- -- 70
2017-08-04 03:00:00 20.5 4 Este 7 Nordeste 0 -- -- 67
2017-08-04 02:00:00 21.4 5 Oeste 9 Sudoeste 0 -- -- 64
2017-08-04 01:00:00 23.4 6 Sudoeste 9 Sudoeste 0 -- -- 58
2017-08-04 00:00:00 24.9 4 Sudeste 9 Sudeste 0 -- -- 53
2017-08-03 23:00:00 26 6 Sur 10 Norte 0 -- -- 49
2017-08-03 22:00:00 27.9 2 Sudeste 16 Noroeste 0 -- -- 43
2017-08-03 21:00:00 31.5 8 Noroeste 17 Oeste 0 -- -- 29
2017-08-03 20:00:00 34.3 14 Oeste 26 Noroeste 0 -- -- 19
2017-08-03 19:00:00 35.1 18 Oeste 32 Oeste 0 -- -- 17
2017-08-03 18:00:00 35.3 19 Noroeste 31 Oeste 0 -- -- 19
2017-08-03 17:00:00 35.5 19 Noroeste 32 Noroeste 0 -- -- 21
2017-08-03 16:00:00 34.9 15 Norte 30 Norte 0 -- -- 24
2017-08-03 15:00:00 34 12 Noroeste 27 Norte 0 -- -- 29
2017-08-03 14:00:00 34.2 11 Noroeste 25 Norte 0 -- -- 29
2017-08-03 13:00:00 33.2 10 Este 23 Este 0 -- -- 30
2017-08-03 12:00:00 31.9 9 Sudeste 18 Sudeste 0 -- -- 33
2017-08-03 11:00:00 31 14 Sudeste 24 Sur 0 -- -- 34
2017-08-03 10:00:00 29 12 Sur 18 Sur 0 -- -- 37
2017-08-03 09:00:00 27 7 Sur 17 Sur 0 -- -- 42
2017-08-03 08:00:00 24.7 7 Sur 13 Sur 0 -- -- 45
2017-08-03 07:00:00 23.2 10 Sur 16 Sur 0 -- -- 49
2017-08-03 06:00:00 23.5 9 Sur 18 Sur 0 -- -- 50
2017-08-03 05:00:00 23.6 6 Sur 26 Sur 0 -- -- 50
2017-08-03 04:00:00 25.2 21 Sur 31 Sur 0 -- -- 46
2017-08-03 03:00:00 24.9 24 Sur 31 Sur 0 -- -- 46
2017-08-03 02:00:00 25.6 20 Sur 27 Sur 0 -- -- 43
2017-08-03 01:00:00 25.8 18 Sur 25 Sur 0 -- -- 40
2017-08-03 00:00:00 26.2 15 Sur 28 Sur 0 -- -- 38
2017-08-02 23:00:00 26.9 17 Sur 30 Sudeste 0 -- -- 37
2017-08-02 22:00:00 28.3 19 Sudeste 36 Sudeste 0 -- -- 34
2017-08-02 21:00:00 29.7 14 Sur 39 Sur 0 -- -- 32
2017-08-02 20:00:00 31.2 22 Sur 43 Sur 0 -- -- 28
2017-08-02 19:00:00 32.2 22 Sur 48 Sur 0 -- -- 27
2017-08-02 18:00:00 32.1 27 Sur 45 Sur 0 -- -- 26
2017-08-02 17:00:00 31.2 25 Sudeste 45 Sudeste 0 -- -- 31
2017-08-02 16:00:00 31.9 21 Sur 37 Sudoeste 0 -- -- 31
2017-08-02 15:00:00 30.7 21 Sur 45 Sudeste 0 -- -- 35
2017-08-02 14:00:00 31.6 20 Sudeste 38 Sur 0 -- -- 34
2017-08-02 13:00:00 30.9 21 Sur 40 Sudoeste 0 -- -- 35
2017-08-02 12:00:00 29.8 20 Sur 33 Sur 0 -- -- 40
2017-08-02 11:00:00 28.7 16 Sur 26 Sur 0 -- -- 42
2017-08-02 10:00:00 26.9 5 Este 22 Sur 0 -- -- 48
2017-08-02 09:00:00 23.4 12 Sur 20 Sur 0 -- -- 57
2017-08-02 08:00:00 20.9 3 Este 16 Sur 0 -- -- 65
2017-08-02 07:00:00 19.9 6 Sudeste 22 Sur 0 -- -- 68
2017-08-02 06:00:00 19.8 7 Sur 12 Sudeste 0 -- -- 69
2017-08-02 05:00:00 17.5 6 Noroeste 13 Sudeste 0 -- -- 79
2017-08-02 04:00:00 18.7 3 Sudoeste 8 Nordeste 0 -- -- 77
2017-08-02 03:00:00 19 2 Norte 6 Oeste 0 -- -- 76
2017-08-02 02:00:00 19.9 2 Noroeste 6 Sudoeste 0 -- -- 73
2017-08-02 01:00:00 20.5 4 Oeste 9 Norte 0 -- -- 70
2017-08-02 00:00:00 22.3 3 Oeste 14 Nordeste 0 -- -- 64
2017-08-01 23:00:00 24.5 3 Sur 14 Este 0 -- -- 56
2017-08-01 22:00:00 26 4 Noroeste 20 Sudoeste 0 -- -- 47
2017-08-01 21:00:00 28.5 13 Sudoeste 23 Sudoeste 0 -- -- 41
2017-08-01 20:00:00 30.2 13 Sur 24 Sur 0 -- -- 39
2017-08-01 19:00:00 30.2 17 Sur 28 Sur 0 -- -- 41
2017-08-01 18:00:00 30.8 13 Sur 29 Sudoeste 0 -- -- 34
2017-08-01 17:00:00 31.7 18 Sur 37 Sudoeste 0 -- -- 33
2017-08-01 16:00:00 31.2 12 Sur 27 Sur 0 -- -- 33
2017-08-01 15:00:00 30.4 14 Sur 30 Sudoeste 0 -- -- 40
2017-08-01 14:00:00 29 15 Sudoeste 31 Sur 0 -- -- 50
2017-08-01 13:00:00 28.1 13 Sur 23 Sur 0 -- -- 53
2017-08-01 12:00:00 24.9 5 Nordeste 12 Nordeste 0 -- -- 60
2017-08-01 11:00:00 21.6 3 Este 10 Este 0 -- -- 68
2017-08-01 10:00:00 19.7 0 Calma 9 Nordeste 0 -- -- 75
2017-08-01 09:00:00 18.6 3 Norte 8 Este 0 -- -- 80
2017-08-01 08:00:00 17.2 3 Noroeste 11 Este 0 -- -- 85
2017-08-01 07:00:00 16.8 5 Sudeste 9 Sudeste 0 -- -- 84
2017-08-01 06:00:00 16.9 3 Oeste 12 Noroeste 0 -- -- 84
2017-08-01 05:00:00 16.9 2 Sudeste 10 Oeste 0 -- -- 84
2017-08-01 04:00:00 17.8 4 Sudeste 8 Sudoeste -- -- -- 80
2017-08-01 03:00:00 18.6 3 Sudeste 7 Sudeste 0 -- -- 76
2017-08-01 02:00:00 18.8 3 Sudoeste 6 Sur 0 -- -- 75
2017-08-01 01:00:00 19.4 4 Este 10 Este 0 -- -- 73
2017-08-01 00:00:00 20.3 6 Este 10 Nordeste 0 -- -- 70
2017-07-31 23:00:00 22.1 4 Este 8 Nordeste 0 -- -- 64
2017-07-31 22:00:00 24.2 5 Noroeste 19 Noroeste 0 -- -- 58
2017-07-31 21:00:00 28.5 12 Norte 25 Sur 0 -- -- 47
2017-07-31 20:00:00 32.1 18 Sur 30 Sur 0 -- -- 34
2017-07-31 19:00:00 32.9 18 Sur 31 Sur 0 -- -- 30
2017-07-31 18:00:00 33.4 19 Sur 33 Sur 0 -- -- 30
2017-07-31 17:00:00 32.9 19 Sur 35 Sur 0 -- -- 32
2017-07-31 16:00:00 32.4 23 Sur 36 Sur 0 -- -- 34
2017-07-31 15:00:00 31.5 22 Sur 43 Sur 0 -- -- 35
2017-07-31 14:00:00 30 26 Sur 49 Sudoeste 0 -- -- 40
2017-07-31 13:00:00 28.9 33 Sur 49 Sur 0 -- -- 42
2017-07-31 12:00:00 27.8 29 Sur 41 Sur 0 -- -- 42
2017-07-31 11:00:00 26.2 23 Sur 33 Sudoeste 0 -- -- 46
2017-07-31 10:00:00 24.3 18 Sur 29 Sur 0 -- -- 48
2017-07-31 09:00:00 18.9 3 Noroeste 6 Noroeste 0 -- -- 79
2017-07-31 08:00:00 17.7 2 Este 5 Sudeste 0 -- -- 85
2017-07-31 07:00:00 16.5 0 Calma 5 Sur 0 -- -- 87
2017-07-31 06:00:00 16.9 3 Oeste 8 Sudeste 0 -- -- 85
2017-07-31 05:00:00 17.9 3 Sudoeste 6 Sudeste 0 -- -- 81
2017-07-31 04:00:00 18.6 4 Sur 6 Sur 0 -- -- 79
2017-07-31 03:00:00 19.4 2 Nordeste 10 Este 0 -- -- 76
2017-07-31 02:00:00 20.5 0 Calma 10 Este 0 -- -- 74
2017-07-31 01:00:00 21.1 4 Sudeste 10 Oeste 0 -- -- 73
2017-07-31 00:00:00 21.5 5 Noroeste 21 Oeste 0 -- -- 71
2017-07-30 23:00:00 22.5 8 Oeste 16 Oeste 0 -- -- 67
2017-07-30 22:00:00 23.9 12 Oeste 20 Norte 0 -- -- 63
2017-07-30 21:00:00 27.1 11 Norte 23 Oeste 0 -- -- 53
2017-07-30 20:00:00 30.3 18 Oeste 30 Oeste 0 -- -- 40
2017-07-30 19:00:00 32.8 20 Oeste 35 Oeste 0 -- -- 26
2017-07-30 18:00:00 33.7 21 Sudoeste 37 Sudoeste 0 -- -- 27
2017-07-30 17:00:00 33.9 8 Sudoeste 35 Sur 0 -- -- 29
2017-07-30 16:00:00 34.1 18 Sur 39 Sur 0 -- -- 28
2017-07-30 15:00:00 33.6 20 Sudeste 34 Sur 0 -- -- 29
2017-07-30 14:00:00 32.7 18 Sudeste 30 Sudeste 0 -- -- 31
2017-07-30 13:00:00 31.2 15 Sur 36 Sudoeste 0 -- -- 37
2017-07-30 12:00:00 29.5 12 Sur 28 Sur 0 -- -- 44
2017-07-30 11:00:00 27.9 12 Sur 20 Sudoeste 0 -- -- 50
2017-07-30 10:00:00 24.4 3 Norte 8 Nordeste 0 -- -- 57
2017-07-30 09:00:00 22 3 Nordeste 9 Noroeste 0 -- -- 63
2017-07-30 08:00:00 21 3 Noroeste 12 Noroeste 0 -- -- 65
2017-07-30 07:00:00 21.1 8 Noroeste 10 Noroeste 0 -- -- 65
2017-07-30 06:00:00 22.7 4 Noroeste 16 Sudeste 0 -- -- 60
2017-07-30 05:00:00 23.5 5 Sudeste 25 Este 0 -- -- 58
2017-07-30 04:00:00 24 12 Este 24 Este 0 -- -- 58
2017-07-30 03:00:00 25.4 8 Sudeste 23 Sur 0 -- -- 56
2017-07-30 02:00:00 26.2 15 Sur 22 Sur 0 -- -- 55
2017-07-30 01:00:00 26.7 17 Sur 33 Sur 0 -- -- 54
2017-07-30 00:00:00 27.8 22 Sur 35 Sur 0 -- -- 52
2017-07-29 23:00:00 28.5 19 Sur 30 Sur 0 -- -- 47
2017-07-29 22:00:00 28.8 14 Sudoeste 19 Sudoeste 0 -- -- 36
2017-07-29 21:00:00 30.4 10 Oeste 24 Oeste 0 -- -- 33
2017-07-29 20:00:00 33.2 17 Oeste 30 Oeste 0 -- -- 24
2017-07-29 19:00:00 34 19 Oeste 27 Oeste 0 -- -- 24
2017-07-29 18:00:00 33.6 7 Sur 32 Sudoeste 0 -- -- 31
2017-07-29 17:00:00 33.8 13 Oeste 30 Sudeste 0 -- -- 30
2017-07-29 16:00:00 32.9 15 Sur 28 Sudeste 0 -- -- 35
2017-07-29 15:00:00 31.8 19 Sur 36 Sur 0 -- -- 35
2017-07-29 14:00:00 30.5 24 Sur 37 Sur 0 -- -- 40
2017-07-29 13:00:00 29.6 19 Sur 35 Sur 0 -- -- 44
2017-07-29 12:00:00 28.5 17 Sur 26 Sudeste 0 -- -- 49
2017-07-29 11:00:00 26.1 14 Sur 27 Sur 0 -- -- 56
2017-07-29 10:00:00 25.2 14 Sudeste 20 Sur 0 -- -- 57
2017-07-29 09:00:00 19.6 4 Noroeste 16 Sudeste 0 -- -- 45
2017-07-29 08:00:00 18.5 2 Noroeste 5 Noroeste 0 -- -- 47
2017-07-29 07:00:00 17.4 0 Calma 5 Sudoeste 0 -- -- 41
2017-07-29 06:00:00 17.8 3 Norte 5 Nordeste 0 -- -- 38
2017-07-29 05:00:00 18.2 2 Norte 8 Noroeste 0 -- -- 34
2017-07-29 04:00:00 19.1 0 Calma 4 Oeste 0 -- -- 32
2017-07-29 03:00:00 20 0 Calma 8 Noroeste 0 -- -- 28
2017-07-29 02:00:00 21 5 Oeste 9 Sudoeste 0 -- -- 30
2017-07-29 01:00:00 22.6 7 Sur 9 Sur 0 -- -- 25
2017-07-29 00:00:00 23.1 3 Sur 6 Noroeste 0 -- -- 29
2017-07-28 23:00:00 23.8 4 Sudoeste 11 Sudeste 0 -- -- 33
2017-07-28 22:00:00 25.5 6 Noroeste 21 Noroeste 0 -- -- 38
2017-07-28 21:00:00 28.9 16 Noroeste 30 Noroeste 0 -- -- 39
2017-07-28 20:00:00 32.1 13 Norte 24 Norte 0 -- -- 29
2017-07-28 19:00:00 32.9 13 Norte 26 Norte 0 -- -- 28
2017-07-28 18:00:00 33.3 6 Norte 27 Noroeste 0 -- -- 23
2017-07-28 17:00:00 33.4 17 Noroeste 37 Noroeste 0 -- -- 22
2017-07-28 16:00:00 33.4 24 Noroeste 35 Noroeste 0 -- -- 25
2017-07-28 15:00:00 32 5 Este 21 Noroeste 0 -- -- 33
2017-07-28 14:00:00 31 5 Nordeste 22 Noroeste 0 -- -- 38
2017-07-28 13:00:00 30.4 4 Oeste 19 Sudeste 0 -- -- 40
2017-07-28 12:00:00 29.4 15 Sudeste 28 Sudeste 0 -- -- 41
2017-07-28 11:00:00 24.7 4 Norte 9 Nordeste 0 -- -- 52
2017-07-28 10:00:00 21.8 4 Noroeste 9 Sudeste 0 -- -- 61
2017-07-28 09:00:00 19.6 5 Sudeste 8 Sudeste 0 -- -- 68
2017-07-28 08:00:00 16.6 0 Calma 5 Norte 0 -- -- 78
2017-07-28 07:00:00 15.3 3 Oeste 5 Oeste 0 -- -- 81
2017-07-28 06:00:00 16.4 0 Calma 4 Norte 0 -- -- 79
2017-07-28 05:00:00 16.8 3 Noroeste 6 Sudoeste 0 -- -- 75
2017-07-28 04:00:00 17.2 0 Calma 8 Oeste 0 -- -- 73
2017-07-28 03:00:00 18 6 Oeste 9 Sudoeste 0 -- -- 71
2017-07-28 02:00:00 19.5 3 Sudoeste 8 Sur 0 -- -- 64
2017-07-28 01:00:00 20.7 5 Sur 10 Sudeste 0 -- -- 59
2017-07-28 00:00:00 21.7 6 Sur 10 Sudeste 0 -- -- 54
2017-07-27 23:00:00 23.1 0 Calma 9 Oeste 0 -- -- 46
2017-07-27 22:00:00 24.6 7 Noroeste 19 Noroeste 0 -- -- 40
2017-07-27 21:00:00 28 11 Noroeste 30 Norte 0 -- -- 32
2017-07-27 20:00:00 29.9 22 Noroeste 33 Noroeste 0 -- -- 28
2017-07-27 19:00:00 32 18 Noroeste 29 Noroeste 0 -- -- 27
2017-07-27 18:00:00 32.2 23 Noroeste 32 Noroeste 0 -- -- 21
2017-07-27 17:00:00 32.1 17 Noroeste 35 Noroeste 0 -- -- 22
2017-07-27 16:00:00 31.4 18 Noroeste 32 Noroeste 0 -- -- 24
2017-07-27 15:00:00 31.1 16 Noroeste 34 Oeste 0 -- -- 27
2017-07-27 14:00:00 29.9 5 Noroeste 17 Oeste 0 -- -- 28
2017-07-27 13:00:00 29.1 8 Norte 18 Nordeste 0 -- -- 29
2017-07-27 12:00:00 26.6 9 Noroeste 15 Norte 0 -- -- 29
2017-07-27 11:00:00 23.8 4 Sudeste 9 Sudeste 0 -- -- 37
2017-07-27 10:00:00 19.7 3 Norte 8 Nordeste 0 -- -- 52
2017-07-27 09:00:00 16.6 3 Norte 6 Nordeste 0 -- -- 61
2017-07-27 08:00:00 15.3 2 Este 3 Este 0 -- -- 64
2017-07-27 07:00:00 13.2 0 Calma 6 Noroeste 0 -- -- 70
2017-07-27 06:00:00 13.6 3 Oeste 5 Oeste 0 -- -- 69
2017-07-27 05:00:00 14.3 4 Norte 6 Norte 0 -- -- 67
2017-07-27 04:00:00 14.9 2 Sudoeste 5 Sudoeste 0 -- -- 66
2017-07-27 03:00:00 15.7 4 Noroeste 5 Sudoeste 0 -- -- 63
2017-07-27 02:00:00 16.5 0 Calma 11 Sudoeste 0 -- -- 60
2017-07-27 01:00:00 18 3 Sur 11 Norte 0 -- -- 54
2017-07-27 00:00:00 19.5 12 Norte 31 Noroeste 0 -- -- 45
2017-07-26 23:00:00 21.5 21 Noroeste 27 Noroeste 0 -- -- 39
2017-07-26 22:00:00 20.7 11 Noroeste 37 Noroeste 0 -- -- 51
2017-07-26 21:00:00 22.8 26 Noroeste 35 Noroeste 0 -- -- 48
2017-07-26 20:00:00 24.6 25 Noroeste 41 Noroeste 0 -- -- 46
2017-07-26 19:00:00 26.3 27 Noroeste 46 Noroeste 0 -- -- 40
2017-07-26 18:00:00 27.1 24 Noroeste 42 Noroeste 0 -- -- 40
2017-07-26 17:00:00 27.5 27 Noroeste 47 Noroeste 0 -- -- 38
2017-07-26 16:00:00 28.1 31 Noroeste 48 Noroeste 0 -- -- 37
2017-07-26 15:00:00 27.3 23 Noroeste 37 Noroeste 0 -- -- 40
2017-07-26 14:00:00 25.7 21 Noroeste 33 Noroeste 0 -- -- 40
2017-07-26 13:00:00 24.1 14 Noroeste 28 Norte 0 -- -- 42
2017-07-26 12:00:00 22.1 9 Noroeste 22 Noroeste 0 -- -- 43
2017-07-26 11:00:00 19.8 9 Norte 18 Norte 0 -- -- 49
2017-07-26 10:00:00 18.1 8 Norte 15 Norte 0 -- -- 53
2017-07-26 09:00:00 16 3 Este 9 Este 0 -- -- 62
2017-07-26 08:00:00 13.3 0 Calma 5 Oeste 0 -- -- 72
2017-07-26 07:00:00 11.9 3 Sudoeste 8 Noroeste 0 -- -- 73
2017-07-26 06:00:00 12.9 3 Nordeste 10 Oeste 0 -- -- 69
2017-07-26 05:00:00 12.8 3 Oeste 14 Noroeste 0 -- -- 70
2017-07-26 04:00:00 13.1 8 Noroeste 24 Noroeste 0 -- -- 71
2017-07-26 03:00:00 13.6 13 Noroeste 23 Noroeste 0 -- -- 67
2017-07-26 02:00:00 14.3 14 Noroeste 33 Noroeste 0 -- -- 64
2017-07-26 01:00:00 14.4 17 Oeste 40 Noroeste 0 -- -- 63
2017-07-26 00:00:00 14.8 26 Noroeste 42 Noroeste 0 -- -- 63
2017-07-25 23:00:00 15.4 22 Noroeste 42 Oeste 0 -- -- 63
2017-07-25 22:00:00 16.5 23 Noroeste 51 Noroeste 0 -- -- 59
2017-07-25 21:00:00 17.8 32 Noroeste 50 Noroeste 0 -- -- 56
2017-07-25 20:00:00 19.5 35 Noroeste 52 Noroeste 0 -- -- 51
2017-07-25 19:00:00 20.6 34 Noroeste 50 Noroeste 0 -- -- 50
2017-07-25 18:00:00 21.7 31 Noroeste 50 Noroeste 0 -- -- 48
2017-07-25 17:00:00 21.7 37 Noroeste 52 Noroeste 0 -- -- 48
2017-07-25 16:00:00 22.8 32 Noroeste 47 Noroeste 0 -- -- 42
2017-07-25 15:00:00 22.7 32 Noroeste 48 Noroeste 0 -- -- 42
2017-07-25 14:00:00 21.5 35 Noroeste 50 Noroeste 0 -- -- 48
2017-07-25 13:00:00 21.4 33 Noroeste 51 Noroeste 0 -- -- 45
2017-07-25 12:00:00 20.4 30 Noroeste 41 Noroeste 0 -- -- 46
2017-07-25 11:00:00 18.6 28 Noroeste 42 Norte 0 -- -- 52
2017-07-25 10:00:00 17.9 24 Noroeste 37 Noroeste 0 -- -- 53
2017-07-25 09:00:00 15.9 22 Noroeste 42 Noroeste 0 -- -- 61
2017-07-25 08:00:00 14.7 21 Noroeste 38 Norte 0 -- -- 64
2017-07-25 07:00:00 13.6 23 Noroeste 39 Noroeste 0 -- -- 64
2017-07-25 06:00:00 13.7 23 Noroeste 38 Noroeste 0 -- -- 66
2017-07-25 05:00:00 14.2 26 Noroeste 43 Noroeste 0 -- -- 65
2017-07-25 04:00:00 14.5 26 Noroeste 48 Noroeste 0 -- -- 66
2017-07-25 03:00:00 14.9 30 Noroeste 45 Noroeste 0 -- -- 63
2017-07-25 02:00:00 15.2 28 Noroeste 48 Noroeste 0 -- -- 65
2017-07-25 01:00:00 15.6 33 Noroeste 50 Noroeste 0 -- -- 69
2017-07-25 00:00:00 15.9 31 Noroeste 47 Noroeste 0 -- -- 67
2017-07-24 23:00:00 16.2 31 Noroeste 50 Noroeste 0 -- -- 68
2017-07-24 22:00:00 16.5 30 Noroeste 52 Noroeste 0 -- -- 67
2017-07-24 21:00:00 17.6 31 Noroeste 50 Noroeste 0 -- -- 66
2017-07-24 20:00:00 20 29 Noroeste 55 Noroeste 0 -- -- 59
2017-07-24 19:00:00 20.1 38 Noroeste 59 Noroeste 0 -- -- 57
2017-07-24 18:00:00 21.2 30 Norte 51 Noroeste 0 -- -- 56
2017-07-24 17:00:00 22.5 30 Noroeste 51 Noroeste 0 -- -- 52
2017-07-24 16:00:00 22 31 Noroeste 56 Norte 0 -- -- 52
2017-07-24 15:00:00 21.6 30 Norte 46 Noroeste 0 -- -- 54
2017-07-24 14:00:00 21 34 Noroeste 46 Noroeste 0 -- -- 60
2017-07-24 13:00:00 21.7 32 Noroeste 53 Noroeste 0 -- -- 53
2017-07-24 12:00:00 19.6 29 Noroeste 43 Noroeste 0 -- -- 63
2017-07-24 11:00:00 19.7 35 Noroeste 45 Noroeste 0 -- -- 61
2017-07-24 10:00:00 19.4 25 Noroeste 40 Noroeste 0 -- -- 65
2017-07-24 09:00:00 18.9 23 Noroeste 34 Noroeste 0 -- -- 67
2017-07-24 08:00:00 18.1 19 Noroeste 32 Noroeste 0 -- -- 70
2017-07-24 07:00:00 17.3 15 Noroeste 30 Noroeste 0 -- -- 74
2017-07-24 06:00:00 17.5 19 Noroeste 32 Noroeste 0 -- -- 73
2017-07-24 05:00:00 17.8 19 Noroeste 36 Noroeste 0 -- -- 73
2017-07-24 04:00:00 17.7 24 Noroeste 35 Noroeste 0 -- -- 73
2017-07-24 03:00:00 17.8 18 Noroeste 31 Noroeste 0 -- -- 70
2017-07-24 02:00:00 17.9 19 Noroeste 29 Noroeste 0 -- -- 65
2017-07-24 01:00:00 17.8 16 Noroeste 33 Noroeste 0 -- -- 60
2017-07-24 00:00:00 17.9 16 Noroeste 35 Noroeste 0 -- -- 55
2017-07-23 23:00:00 19.6 28 Noroeste 42 Noroeste 0 -- -- 48
2017-07-23 22:00:00 20.3 25 Noroeste 34 Noroeste 0 -- -- 45
2017-07-23 21:00:00 23.3 22 Noroeste 34 Noroeste 0 -- -- 41
2017-07-23 20:00:00 25.9 24 Noroeste 35 Noroeste 0 -- -- 40
2017-07-23 19:00:00 27.6 20 Noroeste 33 Noroeste 0 -- -- 40
2017-07-23 18:00:00 27.8 23 Noroeste 33 Norte 0 -- -- 39
2017-07-23 17:00:00 28.8 19 Sudoeste 31 Oeste 0 -- -- 46
2017-07-23 16:00:00 27.4 9 Sudoeste 24 Sur 0 -- -- 52
2017-07-23 15:00:00 26.5 7 Sudeste 16 Sudeste 0 -- -- 54
2017-07-23 14:00:00 25.3 8 Norte 21 Noroeste 0 -- -- 56
2017-07-23 13:00:00 25.4 12 Noroeste 20 Noroeste 0 -- -- 54
2017-07-23 12:00:00 23.9 7 Nordeste 12 Nordeste 0 -- -- 58
2017-07-23 11:00:00 19.9 4 Norte 10 Norte 0 -- -- 65
2017-07-23 10:00:00 18.3 5 Noroeste 9 Nordeste 0 -- -- 71
2017-07-23 09:00:00 17.3 3 Este 7 Nordeste 0 -- -- 74
2017-07-23 08:00:00 15.4 0 Calma 4 Oeste 0 -- -- 81
2017-07-23 07:00:00 14.9 2 Noroeste 5 Noroeste 0 -- -- 84
2017-07-23 06:00:00 14.2 2 Oeste 7 Sudoeste 0 -- -- 85
2017-07-23 05:00:00 14.6 6 Sudoeste 6 Sudoeste 0 -- -- 84
2017-07-23 04:00:00 15 5 Sudoeste 8 Sudoeste 0 -- -- 83
2017-07-23 03:00:00 15.6 4 Sudoeste 5 Sudoeste 0 -- -- 81
2017-07-23 02:00:00 16.3 3 Sudoeste 6 Sudoeste 0 -- -- 79
2017-07-23 01:00:00 16.8 3 Noroeste 6 Oeste 0 -- -- 77
2017-07-23 00:00:00 18 2 Noroeste 12 Nordeste 0 -- -- 73